createdAt,value
2023-04-18T00:01:30.788Z,101798.47
2023-04-18T00:03:58.196Z,101791.19
2023-04-18T00:06:25.998Z,101783.63
2023-04-18T00:08:53.314Z,101780.25
2023-04-18T00:11:20.713Z,101779.38
2023-04-18T00:13:48.134Z,101785.53
2023-04-18T00:16:15.716Z,101775.09
2023-04-18T00:18:43.074Z,101780.34
2023-04-18T00:21:10.303Z,101778.00
2023-04-18T00:23:39.809Z,101779.34
2023-04-18T00:26:07.146Z,101781.53
2023-04-18T00:28:34.620Z,101779.28
2023-04-18T00:31:02.142Z,101786.75
2023-04-18T00:33:32.370Z,101777.41
2023-04-18T00:35:59.686Z,101776.84
2023-04-18T00:38:26.924Z,101775.97
2023-04-18T00:40:54.241Z,101774.00
2023-04-18T00:43:23.816Z,101771.28
2023-04-18T00:45:51.178Z,101773.09
2023-04-18T00:48:18.504Z,101778.97
2023-04-18T00:50:46.036Z,101769.00
2023-04-18T00:53:13.548Z,101772.31
2023-04-18T00:55:41.777Z,101757.72
2023-04-18T00:58:09.296Z,101757.97
2023-04-18T01:00:36.940Z,101751.38
2023-04-18T01:03:04.724Z,101772.34
2023-04-18T01:05:32.003Z,101758.34
2023-04-18T01:08:01.244Z,101759.72
2023-04-18T01:10:30.053Z,101753.47
2023-04-18T01:13:17.322Z,101765.50
2023-04-18T01:15:46.879Z,101754.94
2023-04-18T01:18:18.506Z,101750.72
2023-04-18T01:20:50.963Z,101749.47
2023-04-18T01:23:20.703Z,101743.38
2023-04-18T01:25:51.808Z,101752.44
2023-04-18T01:28:21.239Z,101746.75
2023-04-18T01:30:49.188Z,101744.41
2023-04-18T01:33:16.485Z,101740.69
2023-04-18T01:35:46.403Z,101739.78
2023-04-18T01:38:13.637Z,101738.63
2023-04-18T01:40:40.915Z,101741.13
2023-04-18T01:43:08.369Z,101738.28
2023-04-18T01:45:38.220Z,101734.69
2023-04-18T01:48:05.739Z,101742.13
2023-04-18T01:50:33.588Z,101737.72
2023-04-18T01:53:00.898Z,101732.69
2023-04-18T01:55:28.131Z,101731.72
2023-04-18T01:57:55.462Z,101735.63
2023-04-18T02:00:22.863Z,101732.19
2023-04-18T02:02:50.522Z,101729.63
2023-04-18T02:05:18.139Z,101727.06
2023-04-18T02:07:45.678Z,101727.19
2023-04-18T02:10:13.010Z,101726.84
2023-04-18T02:12:40.238Z,101728.63
2023-04-18T02:15:07.989Z,101723.75
2023-04-18T02:17:36.852Z,101723.72
2023-04-18T02:20:04.569Z,101721.97
2023-04-18T02:22:31.902Z,101721.63
2023-04-18T02:25:01.052Z,101720.63
2023-04-18T02:27:28.364Z,101710.81
2023-04-18T02:29:57.670Z,101723.06
2023-04-18T02:32:25.107Z,101714.38
2023-04-18T02:34:52.443Z,101720.53
2023-04-18T02:37:19.725Z,101714.19
2023-04-18T02:39:47.030Z,101718.59
2023-04-18T02:42:14.789Z,101721.06
2023-04-18T02:44:42.081Z,101708.47
2023-04-18T02:47:09.983Z,101703.47
2023-04-18T02:49:40.501Z,101704.78
2023-04-18T02:52:07.773Z,101704.59
2023-04-18T02:54:35.099Z,101705.31
2023-04-18T02:57:07.616Z,101699.44
2023-04-18T02:59:55.099Z,101696.47
2023-04-18T03:02:31.581Z,101695.94
2023-04-18T03:05:06.721Z,101694.31
2023-04-18T03:07:34.145Z,101696.84
2023-04-18T03:10:01.427Z,101691.97
2023-04-18T03:12:33.771Z,101702.69
2023-04-18T03:15:01.585Z,101706.88
2023-04-18T03:17:29.099Z,101697.75
2023-04-18T03:19:56.383Z,101706.84
2023-04-18T03:22:24.526Z,101708.75
2023-04-18T03:24:56.908Z,101703.19
2023-04-18T03:27:38.475Z,101697.94
2023-04-18T03:30:06.475Z,101698.31
2023-04-18T03:32:35.287Z,101703.84
2023-04-18T03:35:03.283Z,101701.59
2023-04-18T03:37:30.939Z,101701.88
2023-04-18T03:39:59.951Z,101704.88
2023-04-18T03:42:29.723Z,101698.00
2023-04-18T03:44:57.220Z,101693.13
2023-04-18T03:47:25.635Z,101693.06
2023-04-18T03:49:56.921Z,101693.81
2023-04-18T03:52:27.001Z,101693.34
2023-04-18T03:54:55.344Z,101702.97
2023-04-18T03:57:26.207Z,101698.56
2023-04-18T03:59:54.331Z,101691.47
2023-04-18T04:02:22.003Z,101696.97
2023-04-18T04:04:50.693Z,101689.78
2023-04-18T04:07:18.238Z,101687.34
2023-04-18T04:09:45.764Z,101693.06
2023-04-18T04:12:13.134Z,101694.50
2023-04-18T04:14:40.589Z,101681.63
2023-04-18T04:17:08.005Z,101682.72
2023-04-18T04:19:36.286Z,101681.91
2023-04-18T04:22:13.480Z,101676.41
2023-04-18T04:24:42.824Z,101683.28
2023-04-18T04:27:12.608Z,101683.25
2023-04-18T04:29:43.763Z,101681.13
2023-04-18T04:32:13.019Z,101684.72
2023-04-18T04:34:41.884Z,101681.09
2023-04-18T04:37:14.038Z,101685.25
2023-04-18T04:39:52.635Z,101685.53
2023-04-18T04:42:44.068Z,101687.75
2023-04-18T04:45:18.131Z,101689.13
2023-04-18T04:47:46.360Z,101686.63
2023-04-18T04:50:15.687Z,101682.78
2023-04-18T04:52:43.125Z,101679.78
2023-04-18T04:55:11.944Z,101677.28
2023-04-18T04:57:40.976Z,101686.56
2023-04-18T05:00:24.608Z,101682.19
2023-04-18T05:02:53.782Z,101688.78
2023-04-18T05:05:21.140Z,101686.78
2023-04-18T05:07:48.578Z,101683.25
2023-04-18T05:10:15.852Z,101690.19
2023-04-18T05:12:43.192Z,101690.50
2023-04-18T05:15:10.996Z,101694.00
2023-04-18T05:17:38.211Z,101692.97
2023-04-18T05:20:06.312Z,101690.78
2023-04-18T05:22:33.682Z,101680.03
2023-04-18T05:25:01.522Z,101680.28
2023-04-18T05:27:28.917Z,101691.28
2023-04-18T05:29:56.276Z,101681.94
2023-04-18T05:32:23.665Z,101690.16
2023-04-18T05:34:51.239Z,101690.19
2023-04-18T05:37:18.675Z,101693.47
2023-04-18T05:39:46.204Z,101704.16
2023-04-18T05:42:13.435Z,101687.72
2023-04-18T05:44:40.695Z,101688.53
2023-04-18T05:47:07.954Z,101691.25
2023-04-18T05:49:35.283Z,101693.69
2023-04-18T05:52:02.697Z,101699.66
2023-04-18T05:54:30.054Z,101700.25
2023-04-18T05:56:57.378Z,101694.84
2023-04-18T05:59:26.819Z,101700.78
2023-04-18T06:01:54.087Z,101698.25
2023-04-18T06:04:21.664Z,101695.75
2023-04-18T06:06:49.109Z,101698.13
2023-04-18T06:09:16.452Z,101696.19
2023-04-18T06:11:43.685Z,101700.81
2023-04-18T06:14:10.944Z,101695.19
2023-04-18T06:16:38.696Z,101695.38
2023-04-18T06:19:05.959Z,101702.53
2023-04-18T06:21:33.270Z,101700.59
2023-04-18T06:24:01.588Z,101700.34
2023-04-18T06:26:30.158Z,101701.16
2023-04-18T06:28:57.459Z,101713.00
2023-04-18T06:31:24.700Z,101694.81
2023-04-18T06:33:52.292Z,101699.22
2023-04-18T06:36:19.937Z,101707.53
2023-04-18T06:38:47.367Z,101693.75
2023-04-18T06:41:15.766Z,101701.97
2023-04-18T06:43:59.805Z,101697.03
2023-04-18T06:46:30.391Z,101697.88
2023-04-18T06:48:57.738Z,101696.47
2023-04-18T06:51:24.989Z,101695.16
2023-04-18T06:53:55.231Z,101696.53
2023-04-18T06:56:22.716Z,101689.38
2023-04-18T06:58:50.297Z,101689.84
2023-04-18T07:01:17.745Z,101696.88
2023-04-18T07:03:45.072Z,101693.72
2023-04-18T07:06:12.597Z,101687.13
2023-04-18T07:08:39.942Z,101683.75
2023-04-18T07:11:07.487Z,101686.97
2023-04-18T07:13:34.826Z,101690.00
2023-04-18T07:16:02.119Z,101690.53
2023-04-18T07:18:37.424Z,101701.28
2023-04-18T07:21:09.395Z,101690.84
2023-04-18T07:23:37.489Z,101687.97
2023-04-18T07:26:05.835Z,101684.94
2023-04-18T07:28:33.291Z,101692.56
2023-04-18T07:31:01.490Z,101696.22
2023-04-18T07:33:31.793Z,101690.97
2023-04-18T07:36:00.923Z,101687.41
2023-04-18T07:38:28.570Z,101687.28
2023-04-18T07:41:00.143Z,101691.06
2023-04-18T07:43:27.528Z,101688.06
2023-04-18T07:45:54.834Z,101689.56
2023-04-18T07:48:22.735Z,101679.44
2023-04-18T07:50:50.147Z,101681.25
2023-04-18T07:53:18.430Z,101677.81
2023-04-18T07:55:46.597Z,101680.00
2023-04-18T07:58:14.208Z,101682.44
2023-04-18T08:00:42.697Z,101677.25
2023-04-18T08:03:12.145Z,101675.41
2023-04-18T08:05:40.623Z,101671.13
2023-04-18T08:08:09.104Z,101674.22
2023-04-18T08:10:36.698Z,101664.09
2023-04-18T08:13:04.280Z,101673.72
2023-04-18T08:15:32.536Z,101674.63
2023-04-18T08:18:00.990Z,101672.16
2023-04-18T08:20:28.302Z,101667.97
2023-04-18T08:25:27.084Z,101668.28
2023-04-18T08:27:54.459Z,101664.84
2023-04-18T08:30:21.919Z,101661.16
2023-04-18T08:32:49.855Z,101662.09
2023-04-18T08:35:17.426Z,101666.03
2023-04-18T08:37:44.650Z,101663.84
2023-04-18T08:40:11.995Z,101661.25
2023-04-18T08:42:42.266Z,101663.25
2023-04-18T08:45:09.887Z,101652.31
2023-04-18T08:47:37.321Z,101660.72
2023-04-18T08:50:04.896Z,101660.75
2023-04-18T08:52:32.585Z,101653.09
2023-04-18T08:55:02.716Z,101653.56
2023-04-18T08:57:31.145Z,101662.13
2023-04-18T09:00:00.601Z,101649.09
2023-04-18T09:02:45.024Z,101656.84
2023-04-18T09:05:19.915Z,101646.50
2023-04-18T09:07:53.466Z,101643.16
2023-04-18T09:10:32.940Z,101639.75
2023-04-18T09:13:03.438Z,101638.94
2023-04-18T09:15:31.324Z,101633.38
2023-04-18T09:18:02.348Z,101636.31
2023-04-18T09:20:38.462Z,101635.78
2023-04-18T09:23:11.467Z,101619.53
2023-04-18T09:25:44.445Z,101628.03
2023-04-18T09:28:23.305Z,101623.09
2023-04-18T09:30:52.506Z,101625.91
2023-04-18T09:33:33.436Z,101614.63
2023-04-18T09:36:21.703Z,101622.38
2023-04-18T09:38:54.442Z,101622.44
2023-04-18T09:41:23.678Z,101611.50
2023-04-18T09:44:10.304Z,101614.84
2023-04-18T09:46:39.700Z,101607.94
2023-04-18T09:49:08.990Z,101604.81
2023-04-18T09:51:38.532Z,101589.03
2023-04-18T09:54:07.771Z,101609.41
2023-04-18T09:56:38.045Z,101602.66
2023-04-18T09:59:10.095Z,101601.31
2023-04-18T10:01:38.323Z,101588.19
2023-04-18T10:04:06.874Z,101589.41
2023-04-18T10:06:35.170Z,101589.94
2023-04-18T10:09:04.413Z,101592.22
2023-04-18T10:11:32.153Z,101574.03
2023-04-18T10:14:07.177Z,101584.69
2023-04-18T10:16:36.327Z,101582.63
2023-04-18T10:19:26.498Z,101577.69
2023-04-18T10:21:53.805Z,101562.88
2023-04-18T10:24:47.279Z,101571.00
2023-04-18T10:27:15.273Z,101557.59
2023-04-18T10:29:52.906Z,101547.31
2023-04-18T10:32:22.727Z,101558.91
2023-04-18T10:34:50.611Z,101543.31
2023-04-18T10:37:19.027Z,101545.25
2023-04-18T10:40:01.017Z,101531.66
2023-04-18T10:42:58.384Z,101535.75
2023-04-18T10:45:28.543Z,101525.06
2023-04-18T10:48:14.378Z,101541.50
2023-04-18T10:51:26.904Z,101535.44
2023-04-18T10:53:57.364Z,101517.94
2023-04-18T10:56:26.107Z,101526.66
2023-04-18T10:58:54.050Z,101518.13
2023-04-18T11:01:33.143Z,101517.31
2023-04-18T11:04:01.156Z,101532.44
2023-04-18T11:06:29.065Z,101509.72
2023-04-18T11:09:10.708Z,101520.34
2023-04-18T11:11:38.019Z,101529.13
2023-04-18T11:14:05.486Z,101517.28
2023-04-18T11:16:33.613Z,101507.50
2023-04-18T11:19:01.048Z,101511.84
2023-04-18T11:21:30.594Z,101503.41
2023-04-18T11:23:58.769Z,101494.25
2023-04-18T11:26:27.172Z,101501.13
2023-04-18T11:28:58.118Z,101507.31
2023-04-18T11:31:25.648Z,101515.66
2023-04-18T11:33:56.756Z,101489.56
2023-04-18T11:36:24.201Z,101487.91
2023-04-18T11:38:51.426Z,101500.75
2023-04-18T11:41:18.706Z,101487.84
2023-04-18T11:43:46.602Z,101490.56
2023-04-18T11:46:13.942Z,101490.38
2023-04-18T11:48:42.650Z,101492.69
2023-04-18T11:51:37.008Z,101491.34
2023-04-18T11:54:04.531Z,101484.09
2023-04-18T11:56:32.294Z,101481.94
2023-04-18T11:59:08.806Z,101488.72
2023-04-18T12:01:36.216Z,101482.38
2023-04-18T12:04:05.535Z,101477.44
2023-04-18T12:06:48.690Z,101476.56
2023-04-18T12:09:17.414Z,101473.41
2023-04-18T12:11:46.317Z,101475.50
2023-04-18T12:14:21.626Z,101473.06
2023-04-18T12:16:49.678Z,101471.72
2023-04-18T12:19:17.232Z,101466.59
2023-04-18T12:22:02.107Z,101464.94
2023-04-18T12:24:29.545Z,101468.81
2023-04-18T12:26:58.095Z,101465.72
2023-04-18T12:29:27.127Z,101460.63
2023-04-18T12:31:54.668Z,101456.81
2023-04-18T12:34:22.388Z,101451.97
2023-04-18T12:36:49.713Z,101453.19
2023-04-18T12:39:17.145Z,101446.34
2023-04-18T12:41:44.608Z,101457.44
2023-04-18T12:44:12.007Z,101441.63
2023-04-18T12:46:41.893Z,101446.84
2023-04-18T12:49:09.312Z,101439.38
2023-04-18T12:51:36.735Z,101445.44
2023-04-18T12:54:04.181Z,101446.44
2023-04-18T12:56:31.490Z,101442.34
2023-04-18T12:58:58.854Z,101429.97
2023-04-18T13:01:26.263Z,101428.50
2023-04-18T13:04:08.448Z,101415.13
2023-04-18T13:06:39.534Z,101422.28
2023-04-18T13:09:07.272Z,101421.16
2023-04-18T13:11:34.579Z,101421.00
2023-04-18T13:14:02.046Z,101417.72
2023-04-18T13:16:29.632Z,101417.91
2023-04-18T13:18:56.967Z,101427.19
2023-04-18T13:21:25.880Z,101414.47
2023-04-18T13:23:53.303Z,101405.16
2023-04-18T13:26:20.720Z,101401.72
2023-04-18T13:28:48.121Z,101410.69
2023-04-18T13:31:17.070Z,101403.03
2023-04-18T13:33:44.690Z,101402.22
2023-04-18T13:36:12.070Z,101388.00
2023-04-18T13:38:39.853Z,101396.63
2023-04-18T13:41:12.817Z,101383.88
2023-04-18T13:43:40.978Z,101387.66
2023-04-18T13:46:08.576Z,101383.91
2023-04-18T13:48:36.153Z,101377.28
2023-04-18T13:51:03.587Z,101384.13
2023-04-18T13:53:31.253Z,101375.78
2023-04-18T13:55:59.210Z,101378.72
2023-04-18T13:58:26.444Z,101373.81
2023-04-18T14:00:53.972Z,101369.53
2023-04-18T14:03:21.352Z,101367.38
2023-04-18T14:05:48.804Z,101359.22
2023-04-18T14:08:16.430Z,101370.16
2023-04-18T14:10:43.728Z,101370.00
2023-04-18T14:13:11.049Z,101366.09
2023-04-18T14:15:38.839Z,101362.69
2023-04-18T14:18:06.535Z,101364.28
2023-04-18T14:20:36.734Z,101355.47
2023-04-18T14:23:03.915Z,101355.47
2023-04-18T14:25:31.087Z,101353.13
2023-04-18T14:28:12.163Z,101369.84
2023-04-18T14:30:39.975Z,101356.88
2023-04-18T14:33:08.745Z,101350.00
2023-04-18T14:35:36.206Z,101353.41
2023-04-18T14:38:03.435Z,101353.25
2023-04-18T14:40:32.556Z,101355.78
2023-04-18T14:43:00.513Z,101364.13
2023-04-18T14:45:28.112Z,101364.38
2023-04-18T14:47:55.860Z,101357.53
2023-04-18T14:50:23.309Z,101349.50
2023-04-18T14:52:51.016Z,101343.06
2023-04-18T14:55:21.776Z,101345.00
2023-04-18T14:57:49.091Z,101343.38
2023-04-18T15:00:16.665Z,101356.06
2023-04-18T15:02:44.323Z,101338.66
2023-04-18T15:05:12.523Z,101340.16
2023-04-18T15:07:40.791Z,101343.91
2023-04-18T15:10:08.573Z,101336.94
2023-04-18T15:12:36.108Z,101345.47
2023-04-18T15:15:03.456Z,101355.41
2023-04-18T15:17:30.892Z,101343.69
2023-04-18T15:20:01.060Z,101352.28
2023-04-18T15:22:28.326Z,101347.38
2023-04-18T15:24:55.468Z,101343.31
2023-04-18T15:27:22.839Z,101338.88
2023-04-18T15:29:50.146Z,101333.34
2023-04-18T15:32:17.985Z,101344.28
2023-04-18T15:34:45.380Z,101332.72
2023-04-18T15:37:12.669Z,101328.53
2023-04-18T15:39:40.126Z,101331.13
2023-04-18T15:42:07.626Z,101328.03
2023-04-18T15:44:34.849Z,101319.38
2023-04-18T15:47:02.362Z,101326.88
2023-04-18T15:49:29.625Z,101316.44
2023-04-18T15:51:56.933Z,101320.69
2023-04-18T15:54:24.258Z,101317.28
2023-04-18T15:56:51.637Z,101315.63
2023-04-18T15:59:18.958Z,101311.22
2023-04-18T16:01:46.422Z,101313.06
2023-04-18T16:04:14.207Z,101331.00
2023-04-18T16:06:41.807Z,101319.53
2023-04-18T16:09:09.961Z,101320.69
2023-04-18T16:11:37.247Z,101319.53
2023-04-18T16:14:04.474Z,101314.91
2023-04-18T16:16:32.122Z,101323.81
2023-04-18T16:18:59.840Z,101323.97
2023-04-18T16:21:28.306Z,101319.41
2023-04-18T16:23:56.984Z,101320.09
2023-04-18T16:26:24.991Z,101316.16
2023-04-18T16:28:52.393Z,101315.09
2023-04-18T16:31:19.855Z,101312.56
2023-04-18T16:33:47.292Z,101319.44
2023-04-18T16:36:15.187Z,101331.31
2023-04-18T16:38:42.572Z,101322.66
2023-04-18T16:41:09.891Z,101323.50
2023-04-18T16:43:38.058Z,101320.66
2023-04-18T16:46:05.692Z,101322.91
2023-04-18T16:48:33.079Z,101322.50
2023-04-18T16:51:00.724Z,101320.72
2023-04-18T16:53:28.497Z,101319.22
2023-04-18T16:55:55.970Z,101329.34
2023-04-18T16:58:23.701Z,101326.59
2023-04-18T17:00:52.871Z,101317.78
2023-04-18T17:03:20.598Z,101320.91
2023-04-18T17:05:47.957Z,101315.97
2023-04-18T17:08:15.191Z,101319.53
2023-04-18T17:10:42.556Z,101319.66
2023-04-18T17:13:09.874Z,101318.16
2023-04-18T17:15:38.199Z,101313.50
2023-04-18T17:18:05.794Z,101312.53
2023-04-18T17:20:33.171Z,101304.41
2023-04-18T17:23:00.708Z,101317.94
2023-04-18T17:25:27.922Z,101370.22
2023-04-18T17:27:55.196Z,101349.19
2023-04-18T17:30:22.540Z,101350.56
2023-04-18T17:32:50.540Z,101350.03
2023-04-18T17:35:17.926Z,101349.66
2023-04-18T17:37:46.625Z,101342.47
2023-04-18T17:40:14.256Z,101346.53
2023-04-18T17:42:41.677Z,101338.94
2023-04-18T17:45:10.012Z,101336.28
2023-04-18T17:47:37.547Z,101342.41
2023-04-18T17:50:05.392Z,101340.38
2023-04-18T17:52:33.092Z,101343.59
2023-04-18T17:55:01.659Z,101338.88
2023-04-18T17:57:30.563Z,101339.72
2023-04-18T17:59:58.086Z,101343.47
2023-04-18T18:02:25.566Z,101353.91
2023-04-18T18:04:53.148Z,101359.97
2023-04-18T18:07:20.946Z,101380.50
2023-04-18T18:09:48.407Z,101388.81
2023-04-18T18:12:15.823Z,101384.63
2023-04-18T18:14:43.075Z,101385.94
2023-04-18T18:17:11.195Z,101390.06
2023-04-18T18:19:38.927Z,101392.56
2023-04-18T18:22:07.090Z,101391.25
2023-04-18T18:24:34.583Z,101391.00
2023-04-18T18:27:01.829Z,101399.38
2023-04-18T18:29:30.372Z,101413.13
2023-04-18T18:31:57.569Z,101408.09
2023-04-18T18:34:25.116Z,101404.53
2023-04-18T18:36:52.428Z,101406.47
2023-04-18T18:39:20.051Z,101405.53
2023-04-18T18:41:47.312Z,101403.97
2023-04-18T18:44:14.722Z,101415.34
2023-04-18T18:46:43.237Z,101407.41
2023-04-18T18:49:10.732Z,101411.38
2023-04-18T18:51:38.087Z,101414.78
2023-04-18T18:54:05.500Z,101412.41
2023-04-18T18:56:32.948Z,101414.91
2023-04-18T18:59:00.284Z,101415.66
2023-04-18T19:01:30.123Z,101423.00
2023-04-18T19:03:57.561Z,101411.50
2023-04-18T19:06:24.938Z,101429.78
2023-04-18T19:08:52.378Z,101426.97
2023-04-18T19:11:19.791Z,101429.16
2023-04-18T19:13:47.129Z,101430.06
2023-04-18T19:16:14.719Z,101430.25
2023-04-18T19:18:46.864Z,101437.66
2023-04-18T19:21:14.122Z,101435.22
2023-04-18T19:23:42.138Z,101434.16
2023-04-18T19:26:12.363Z,101442.50
2023-04-18T19:28:39.630Z,101444.66
2023-04-18T19:31:06.960Z,101436.03
2023-04-18T19:33:34.282Z,101447.66
2023-04-18T19:36:02.186Z,101438.72
2023-04-18T19:38:29.405Z,101437.41
2023-04-18T19:40:57.288Z,101446.22
2023-04-18T19:43:24.586Z,101445.88
2023-04-18T19:45:53.872Z,101453.25
2023-04-18T19:48:22.439Z,101455.56
2023-04-18T19:50:50.104Z,101444.03
2023-04-18T19:53:18.988Z,101448.72
2023-04-18T19:55:46.320Z,101453.53
2023-04-18T19:58:34.609Z,101455.34
2023-04-18T20:01:02.037Z,101456.91
2023-04-18T20:03:29.517Z,101463.91
2023-04-18T20:05:56.991Z,101462.88
2023-04-18T20:08:24.230Z,101456.16
2023-04-18T20:10:51.572Z,101463.75
2023-04-18T20:13:18.893Z,101453.63
2023-04-18T20:15:46.110Z,101448.34
2023-04-18T20:18:13.507Z,101448.34
2023-04-18T20:20:41.336Z,101449.66
2023-04-18T20:23:09.189Z,101455.28
2023-04-18T20:25:36.612Z,101456.22
2023-04-18T20:28:04.038Z,101459.53
2023-04-18T20:30:31.469Z,101463.34
2023-04-18T20:32:58.871Z,101457.16
2023-04-18T20:35:28.077Z,101464.31
2023-04-18T20:37:55.711Z,101463.59
2023-04-18T20:40:23.092Z,101472.19
2023-04-18T20:42:50.619Z,101474.78
2023-04-18T20:45:17.998Z,101473.91
2023-04-18T20:47:45.819Z,101468.28
2023-04-18T20:50:14.035Z,101476.47
2023-04-18T20:52:42.847Z,101479.19
2023-04-18T20:55:10.979Z,101469.00
2023-04-18T20:57:38.225Z,101476.72
2023-04-18T21:00:07.299Z,101479.50
2023-04-18T21:02:34.680Z,101477.94
2023-04-18T21:05:02.460Z,101476.78
2023-04-18T21:07:31.165Z,101475.53
2023-04-18T21:09:58.503Z,101476.28
2023-04-18T21:12:25.883Z,101480.81
2023-04-18T21:14:53.104Z,101478.66
2023-04-18T21:17:20.428Z,101471.31
2023-04-18T21:19:48.730Z,101468.88
2023-04-18T21:22:16.419Z,101472.03
2023-04-18T21:24:43.897Z,101465.59
2023-04-18T21:27:11.374Z,101465.53
2023-04-18T21:29:38.845Z,101466.91
2023-04-18T21:32:06.204Z,101471.88
2023-04-18T21:34:33.465Z,101465.97
2023-04-18T21:37:00.838Z,101470.59
2023-04-18T21:39:28.109Z,101471.69
2023-04-18T21:41:55.347Z,101468.09
2023-04-18T21:44:22.790Z,101467.59
2023-04-18T21:46:50.037Z,101469.78
2023-04-18T21:49:17.435Z,101471.72
2023-04-18T21:51:45.306Z,101466.56
2023-04-18T21:54:12.707Z,101470.09
2023-04-18T21:56:40.194Z,101462.00
2023-04-18T21:59:07.408Z,101471.84
2023-04-18T22:01:35.869Z,101462.06
2023-04-18T22:04:03.353Z,101466.16
2023-04-18T22:06:32.342Z,101473.94
2023-04-18T22:09:00.969Z,101472.19
2023-04-18T22:11:28.893Z,101461.19
2023-04-18T22:13:58.146Z,101464.38
2023-04-18T22:16:25.990Z,101472.03
2023-04-18T22:18:53.996Z,101470.44
2023-04-18T22:21:21.339Z,101467.59
2023-04-18T22:23:48.555Z,101474.66
2023-04-18T22:26:15.834Z,101475.53
2023-04-18T22:28:43.259Z,101468.75
2023-04-18T22:31:10.698Z,101467.97
2023-04-18T22:33:38.061Z,101465.53
2023-04-18T22:36:05.933Z,101467.22
2023-04-18T22:38:33.228Z,101474.28
2023-04-18T22:41:00.811Z,101466.81
2023-04-18T22:43:28.454Z,101466.09
2023-04-18T22:45:56.550Z,101463.13
2023-04-18T22:48:23.932Z,101463.75
2023-04-18T22:50:51.175Z,101468.25
2023-04-18T22:53:18.458Z,101469.72
2023-04-18T22:55:46.305Z,101469.28
2023-04-18T22:58:14.214Z,101462.22
2023-04-18T23:00:42.651Z,101463.09
2023-04-18T23:03:10.327Z,101460.34
2023-04-18T23:05:37.629Z,101462.13
2023-04-18T23:08:06.916Z,101467.03
2023-04-18T23:10:34.409Z,101463.44
2023-04-18T23:13:01.613Z,101469.91
2023-04-18T23:15:28.936Z,101472.00
2023-04-18T23:17:56.281Z,101476.38
2023-04-18T23:20:24.088Z,101468.16
2023-04-18T23:22:51.786Z,101479.44
2023-04-18T23:25:22.389Z,101469.91
2023-04-18T23:27:49.660Z,101469.63
2023-04-18T23:30:17.225Z,101468.50
2023-04-18T23:32:44.528Z,101466.19
2023-04-18T23:35:12.001Z,101463.41
2023-04-18T23:37:39.423Z,101465.78
2023-04-18T23:40:08.035Z,101465.78
2023-04-18T23:42:35.722Z,101455.72
2023-04-18T23:45:04.041Z,101465.66
2023-04-18T23:47:31.609Z,101457.66
2023-04-18T23:49:59.139Z,101459.72
2023-04-18T23:52:26.584Z,101466.59
2023-04-18T23:54:53.941Z,101465.13
2023-04-18T23:57:21.364Z,101464.34
2023-04-18T23:59:48.881Z,101461.44
